sensor_id;sensor_type;location;lat;lon;timestamp;pressure;altitude;pressure_sealevel;temperature;humidity
7280;BME280;3681;52.254;10.532;2022-07-19T00:00:33;101030.53;;;22.89;100.00
7280;BME280;3681;52.254;10.532;2022-07-19T00:03:56;101035.50;;;22.50;100.00
7280;BME280;3681;52.254;10.532;2022-07-19T00:07:17;101036.13;;;22.62;100.00
7280;BME280;3681;52.254;10.532;2022-07-19T00:10:39;101042.78;;;22.71;100.00
7280;BME280;3681;52.254;10.532;2022-07-19T00:14:00;101034.44;;;22.56;100.00
7280;BME280;3681;52.254;10.532;2022-07-19T00:17:23;101036.19;;;22.72;100.00
7280;BME280;3681;52.254;10.532;2022-07-19T00:20:44;101024.41;;;22.34;100.00
7280;BME280;3681;52.254;10.532;2022-07-19T00:24:05;101026.44;;;22.49;100.00
7280;BME280;3681;52.254;10.532;2022-07-19T00:27:26;101031.19;;;22.64;100.00
7280;BME280;3681;52.254;10.532;2022-07-19T00:30:48;101025.78;;;22.79;100.00
7280;BME280;3681;52.254;10.532;2022-07-19T00:34:11;101025.44;;;22.71;100.00
7280;BME280;3681;52.254;10.532;2022-07-19T00:37:33;101019.16;;;22.75;100.00
7280;BME280;3681;52.254;10.532;2022-07-19T00:40:54;101020.31;;;22.37;100.00
7280;BME280;3681;52.254;10.532;2022-07-19T00:44:15;101022.38;;;22.62;100.00
7280;BME280;3681;52.254;10.532;2022-07-19T00:47:36;101028.00;;;22.40;100.00
7280;BME280;3681;52.254;10.532;2022-07-19T00:50:59;101019.44;;;22.74;100.00
7280;BME280;3681;52.254;10.532;2022-07-19T00:54:20;101024.00;;;22.16;100.00
7280;BME280;3681;52.254;10.532;2022-07-19T00:57:44;101017.88;;;22.08;100.00
7280;BME280;3681;52.254;10.532;2022-07-19T01:01:07;101023.13;;;22.10;100.00
7280;BME280;3681;52.254;10.532;2022-07-19T01:04:28;101029.84;;;21.65;100.00
7280;BME280;3681;52.254;10.532;2022-07-19T01:07:51;101029.53;;;21.62;100.00
7280;BME280;3681;52.254;10.532;2022-07-19T01:11:13;101024.41;;;21.70;100.00
7280;BME280;3681;52.254;10.532;2022-07-19T01:14:34;101024.06;;;21.40;100.00
7280;BME280;3681;52.254;10.532;2022-07-19T01:17:56;101023.00;;;21.19;100.00
7280;BME280;3681;52.254;10.532;2022-07-19T01:21:21;101019.44;;;20.96;100.00
7280;BME280;3681;52.254;10.532;2022-07-19T01:24:44;101019.50;;;20.79;100.00
7280;BME280;3681;52.254;10.532;2022-07-19T01:28:07;101030.06;;;20.71;100.00
7280;BME280;3681;52.254;10.532;2022-07-19T01:31:28;101031.25;;;20.41;100.00
7280;BME280;3681;52.254;10.532;2022-07-19T01:34:50;101026.47;;;20.48;100.00
7280;BME280;3681;52.254;10.532;2022-07-19T01:38:13;101022.97;;;20.36;100.00
7280;BME280;3681;52.254;10.532;2022-07-19T01:41:34;101018.97;;;20.27;100.00
7280;BME280;3681;52.254;10.532;2022-07-19T01:44:56;101016.06;;;20.34;100.00
7280;BME280;3681;52.254;10.532;2022-07-19T01:48:17;101023.53;;;20.55;100.00
7280;BME280;3681;52.254;10.532;2022-07-19T01:51:38;101021.72;;;20.61;100.00
7280;BME280;3681;52.254;10.532;2022-07-19T01:55:02;101007.00;;;20.67;100.00
7280;BME280;3681;52.254;10.532;2022-07-19T01:58:24;101017.97;;;20.67;100.00
7280;BME280;3681;52.254;10.532;2022-07-19T02:01:45;101021.03;;;21.14;100.00
7280;BME280;3681;52.254;10.532;2022-07-19T02:05:07;101015.63;;;20.75;100.00
7280;BME280;3681;52.254;10.532;2022-07-19T02:08:30;101010.72;;;20.77;100.00
7280;BME280;3681;52.254;10.532;2022-07-19T02:11:53;101021.66;;;20.77;100.00
7280;BME280;3681;52.254;10.532;2022-07-19T02:15:14;101026.63;;;20.59;100.00
7280;BME280;3681;52.254;10.532;2022-07-19T02:18:35;101031.53;;;20.23;100.00
7280;BME280;3681;52.254;10.532;2022-07-19T02:21:56;101029.75;;;20.67;100.00
7280;BME280;3681;52.254;10.532;2022-07-19T02:25:18;101012.47;;;20.67;100.00
7280;BME280;3681;52.254;10.532;2022-07-19T02:28:42;101009.75;;;20.67;100.00
7280;BME280;3681;52.254;10.532;2022-07-19T02:32:04;101017.78;;;21.17;100.00
7280;BME280;3681;52.254;10.532;2022-07-19T02:35:26;101024.00;;;20.69;100.00
7280;BME280;3681;52.254;10.532;2022-07-19T02:38:47;101018.25;;;20.15;100.00
7280;BME280;3681;52.254;10.532;2022-07-19T02:42:08;101020.16;;;20.48;100.00
7280;BME280;3681;52.254;10.532;2022-07-19T02:45:31;101022.97;;;20.75;100.00
7280;BME280;3681;52.254;10.532;2022-07-19T02:48:52;101024.25;;;20.67;100.00
7280;BME280;3681;52.254;10.532;2022-07-19T02:52:13;101020.44;;;20.68;100.00
7280;BME280;3681;52.254;10.532;2022-07-19T02:55:34;101022.38;;;20.90;100.00
7280;BME280;3681;52.254;10.532;2022-07-19T02:58:56;101025.44;;;20.93;100.00
7280;BME280;3681;52.254;10.532;2022-07-19T03:02:18;101038.22;;;20.66;100.00
7280;BME280;3681;52.254;10.532;2022-07-19T03:05:40;101034.22;;;20.73;100.00
7280;BME280;3681;52.254;10.532;2022-07-19T03:09:01;101026.69;;;20.86;100.00
7280;BME280;3681;52.254;10.532;2022-07-19T03:12:23;101025.94;;;19.84;100.00
7280;BME280;3681;52.254;10.532;2022-07-19T03:15:44;101028.75;;;19.72;100.00
7280;BME280;3681;52.254;10.532;2022-07-19T03:19:06;101022.91;;;20.14;100.00
7280;BME280;3681;52.254;10.532;2022-07-19T03:22:28;101031.75;;;20.55;100.00
7280;BME280;3681;52.254;10.532;2022-07-19T03:25:50;101020.19;;;20.92;100.00
7280;BME280;3681;52.254;10.532;2022-07-19T03:29:11;101025.53;;;20.60;100.00
7280;BME280;3681;52.254;10.532;2022-07-19T03:32:33;101023.63;;;20.43;100.00
7280;BME280;3681;52.254;10.532;2022-07-19T03:35:57;101021.41;;;20.23;100.00
7280;BME280;3681;52.254;10.532;2022-07-19T03:39:18;101024.34;;;20.39;100.00
7280;BME280;3681;52.254;10.532;2022-07-19T03:42:39;101024.88;;;20.36;100.00
7280;BME280;3681;52.254;10.532;2022-07-19T03:46:01;101037.75;;;20.52;100.00
7280;BME280;3681;52.254;10.532;2022-07-19T03:49:22;101030.84;;;20.33;100.00
7280;BME280;3681;52.254;10.532;2022-07-19T03:52:45;101025.44;;;20.04;100.00
7280;BME280;3681;52.254;10.532;2022-07-19T03:56:06;101030.75;;;20.44;100.00
7280;BME280;3681;52.254;10.532;2022-07-19T03:59:29;101032.03;;;20.53;100.00
7280;BME280;3681;52.254;10.532;2022-07-19T04:02:50;101022.06;;;20.31;100.00
7280;BME280;3681;52.254;10.532;2022-07-19T04:06:12;101018.81;;;20.34;100.00
7280;BME280;3681;52.254;10.532;2022-07-19T04:09:35;101023.06;;;20.08;100.00
7280;BME280;3681;52.254;10.532;2022-07-19T04:12:56;101033.59;;;19.99;100.00
7280;BME280;3681;52.254;10.532;2022-07-19T04:16:17;101028.63;;;19.96;100.00
7280;BME280;3681;52.254;10.532;2022-07-19T04:19:38;101030.72;;;20.22;100.00
7280;BME280;3681;52.254;10.532;2022-07-19T04:23:00;101028.44;;;20.19;100.00
7280;BME280;3681;52.254;10.532;2022-07-19T04:26:22;101024.78;;;19.97;100.00
7280;BME280;3681;52.254;10.532;2022-07-19T04:29:44;101029.78;;;20.00;100.00
7280;BME280;3681;52.254;10.532;2022-07-19T04:33:05;101031.41;;;20.51;100.00
7280;BME280;3681;52.254;10.532;2022-07-19T04:36:27;101039.22;;;20.26;100.00
7280;BME280;3681;52.254;10.532;2022-07-19T04:39:48;101034.81;;;20.42;100.00
7280;BME280;3681;52.254;10.532;2022-07-19T04:43:11;101045.34;;;20.67;100.00
7280;BME280;3681;52.254;10.532;2022-07-19T04:46:32;101053.41;;;20.57;100.00
7280;BME280;3681;52.254;10.532;2022-07-19T04:49:54;101049.13;;;21.04;100.00
7280;BME280;3681;52.254;10.532;2022-07-19T04:53:15;101052.75;;;21.10;100.00
7280;BME280;3681;52.254;10.532;2022-07-19T04:56:36;101056.88;;;20.69;100.00
7280;BME280;3681;52.254;10.532;2022-07-19T04:59:59;101052.44;;;20.85;100.00
7280;BME280;3681;52.254;10.532;2022-07-19T05:03:20;101057.06;;;21.23;100.00
7280;BME280;3681;52.254;10.532;2022-07-19T05:06:42;101052.59;;;20.95;100.00
7280;BME280;3681;52.254;10.532;2022-07-19T05:10:05;101053.84;;;21.09;100.00
7280;BME280;3681;52.254;10.532;2022-07-19T05:13:26;101053.06;;;21.30;100.00
7280;BME280;3681;52.254;10.532;2022-07-19T05:16:49;101060.31;;;21.42;100.00
7280;BME280;3681;52.254;10.532;2022-07-19T05:20:11;101066.06;;;21.67;100.00
7280;BME280;3681;52.254;10.532;2022-07-19T05:23:35;101053.78;;;21.26;100.00
7280;BME280;3681;52.254;10.532;2022-07-19T05:26:56;101055.25;;;21.82;100.00
7280;BME280;3681;52.254;10.532;2022-07-19T05:30:18;101062.56;;;22.04;100.00
7280;BME280;3681;52.254;10.532;2022-07-19T05:33:40;101060.47;;;22.43;100.00
7280;BME280;3681;52.254;10.532;2022-07-19T05:37:02;101050.34;;;22.49;100.00
7280;BME280;3681;52.254;10.532;2022-07-19T05:40:24;101064.53;;;22.78;100.00
7280;BME280;3681;52.254;10.532;2022-07-19T05:43:46;101068.44;;;22.87;100.00
7280;BME280;3681;52.254;10.532;2022-07-19T05:47:08;101061.75;;;23.30;100.00
7280;BME280;3681;52.254;10.532;2022-07-19T05:50:30;101063.75;;;23.50;100.00
7280;BME280;3681;52.254;10.532;2022-07-19T05:53:52;101069.63;;;23.74;100.00
7280;BME280;3681;52.254;10.532;2022-07-19T05:57:14;101068.50;;;23.65;100.00
7280;BME280;3681;52.254;10.532;2022-07-19T06:00:36;101066.03;;;23.68;100.00
7280;BME280;3681;52.254;10.532;2022-07-19T06:03:59;101068.25;;;23.87;100.00
7280;BME280;3681;52.254;10.532;2022-07-19T06:07:22;101071.31;;;24.26;100.00
7280;BME280;3681;52.254;10.532;2022-07-19T06:10:44;101078.72;;;24.31;100.00
7280;BME280;3681;52.254;10.532;2022-07-19T06:14:07;101077.38;;;24.03;100.00
7280;BME280;3681;52.254;10.532;2022-07-19T06:17:30;101079.00;;;24.29;100.00
7280;BME280;3681;52.254;10.532;2022-07-19T06:20:53;101076.22;;;24.85;100.00
7280;BME280;3681;52.254;10.532;2022-07-19T06:24:15;101081.09;;;25.14;100.00
7280;BME280;3681;52.254;10.532;2022-07-19T06:27:36;101085.91;;;24.57;100.00
7280;BME280;3681;52.254;10.532;2022-07-19T06:30:58;101085.03;;;24.82;100.00
7280;BME280;3681;52.254;10.532;2022-07-19T06:34:20;101078.63;;;25.07;100.00
7280;BME280;3681;52.254;10.532;2022-07-19T06:37:47;101082.03;;;25.48;100.00
7280;BME280;3681;52.254;10.532;2022-07-19T06:41:10;101083.66;;;25.54;100.00
7280;BME280;3681;52.254;10.532;2022-07-19T06:44:32;101087.06;;;25.91;100.00
7280;BME280;3681;52.254;10.532;2022-07-19T06:47:54;101085.00;;;26.06;100.00
7280;BME280;3681;52.254;10.532;2022-07-19T06:51:15;101088.25;;;26.53;100.00
7280;BME280;3681;52.254;10.532;2022-07-19T06:54:37;101082.28;;;26.41;100.00
7280;BME280;3681;52.254;10.532;2022-07-19T06:58:00;101076.56;;;26.27;100.00
7280;BME280;3681;52.254;10.532;2022-07-19T07:01:21;101079.69;;;26.49;100.00
7280;BME280;3681;52.254;10.532;2022-07-19T07:04:43;101080.94;;;26.62;100.00
7280;BME280;3681;52.254;10.532;2022-07-19T07:08:05;101085.44;;;26.58;100.00
7280;BME280;3681;52.254;10.532;2022-07-19T07:11:31;101076.63;;;27.04;100.00
7280;BME280;3681;52.254;10.532;2022-07-19T07:14:55;101083.94;;;27.61;100.00
7280;BME280;3681;52.254;10.532;2022-07-19T07:18:19;101085.38;;;27.59;100.00
7280;BME280;3681;52.254;10.532;2022-07-19T07:21:41;101083.97;;;27.99;97.60
7280;BME280;3681;52.254;10.532;2022-07-19T07:25:03;101089.41;;;28.23;98.78
7280;BME280;3681;52.254;10.532;2022-07-19T07:28:25;101086.06;;;28.40;97.77
7280;BME280;3681;52.254;10.532;2022-07-19T07:31:48;101082.84;;;28.79;98.54
7280;BME280;3681;52.254;10.532;2022-07-19T07:35:12;101083.84;;;28.69;98.57
7280;BME280;3681;52.254;10.532;2022-07-19T07:38:36;101084.00;;;29.33;89.09
7280;BME280;3681;52.254;10.532;2022-07-19T07:41:57;101082.25;;;29.37;86.87
7280;BME280;3681;52.254;10.532;2022-07-19T07:45:31;101077.19;;;29.39;91.79
7280;BME280;3681;52.254;10.532;2022-07-19T07:48:54;101077.59;;;29.96;87.41
7280;BME280;3681;52.254;10.532;2022-07-19T07:52:16;101073.16;;;30.40;78.26
7280;BME280;3681;52.254;10.532;2022-07-19T07:55:38;101076.66;;;30.23;82.55
7280;BME280;3681;52.254;10.532;2022-07-19T07:59:00;101076.34;;;30.78;80.84
7280;BME280;3681;52.254;10.532;2022-07-19T08:02:22;101077.34;;;30.29;72.80
7280;BME280;3681;52.254;10.532;2022-07-19T08:05:45;101067.75;;;31.06;67.08
7280;BME280;3681;52.254;10.532;2022-07-19T08:09:07;101064.78;;;30.94;77.60
7280;BME280;3681;52.254;10.532;2022-07-19T08:12:29;101068.06;;;31.53;69.47
7280;BME280;3681;52.254;10.532;2022-07-19T08:15:50;101068.09;;;31.13;60.17
7280;BME280;3681;52.254;10.532;2022-07-19T08:19:12;101063.19;;;31.19;59.19
7280;BME280;3681;52.254;10.532;2022-07-19T08:22:34;101065.59;;;32.12;53.27
7280;BME280;3681;52.254;10.532;2022-07-19T08:25:56;101072.81;;;31.52;56.41
7280;BME280;3681;52.254;10.532;2022-07-19T08:29:17;101071.06;;;31.91;57.82
7280;BME280;3681;52.254;10.532;2022-07-19T08:32:39;101066.78;;;32.75;51.87
7280;BME280;3681;52.254;10.532;2022-07-19T08:36:00;101063.94;;;32.46;54.09
7280;BME280;3681;52.254;10.532;2022-07-19T08:39:23;101058.47;;;32.58;51.13
7280;BME280;3681;52.254;10.532;2022-07-19T08:42:46;101066.59;;;33.48;45.34
7280;BME280;3681;52.254;10.532;2022-07-19T08:46:08;101070.47;;;32.96;45.08
7280;BME280;3681;52.254;10.532;2022-07-19T08:49:29;101075.16;;;33.43;45.18
7280;BME280;3681;52.254;10.532;2022-07-19T08:52:51;101059.81;;;32.99;48.05
7280;BME280;3681;52.254;10.532;2022-07-19T08:56:15;101056.78;;;33.63;46.86
7280;BME280;3681;52.254;10.532;2022-07-19T08:59:54;101051.00;;;33.38;47.47
7280;BME280;3681;52.254;10.532;2022-07-19T09:03:15;101059.03;;;33.48;49.15
7280;BME280;3681;52.254;10.532;2022-07-19T09:06:39;101056.81;;;34.17;43.26
7280;BME280;3681;52.254;10.532;2022-07-19T09:10:17;101060.63;;;33.91;46.50
7280;BME280;3681;52.254;10.532;2022-07-19T09:13:40;101056.84;;;34.29;45.09
7280;BME280;3681;52.254;10.532;2022-07-19T09:17:04;101058.91;;;34.53;38.62
7280;BME280;3681;52.254;10.532;2022-07-19T09:20:29;101048.53;;;34.53;38.10
7280;BME280;3681;52.254;10.532;2022-07-19T09:23:57;101058.91;;;34.53;38.20
7280;BME280;3681;52.254;10.532;2022-07-19T09:27:20;101059.28;;;34.64;33.21
7280;BME280;3681;52.254;10.532;2022-07-19T09:30:46;101051.34;;;34.78;33.31
7280;BME280;3681;52.254;10.532;2022-07-19T09:34:07;101048.13;;;35.00;33.81
7280;BME280;3681;52.254;10.532;2022-07-19T09:37:30;101044.97;;;35.67;32.56
7280;BME280;3681;52.254;10.532;2022-07-19T09:40:53;101035.56;;;36.15;31.76
7280;BME280;3681;52.254;10.532;2022-07-19T09:44:22;101037.00;;;35.69;32.20
7280;BME280;3681;52.254;10.532;2022-07-19T09:47:47;101022.97;;;36.53;29.89
7280;BME280;3681;52.254;10.532;2022-07-19T09:51:08;101023.78;;;36.53;28.98
7280;BME280;3681;52.254;10.532;2022-07-19T09:54:31;101021.41;;;35.96;29.89
7280;BME280;3681;52.254;10.532;2022-07-19T09:57:53;101011.44;;;36.89;30.18
7280;BME280;3681;52.254;10.532;2022-07-19T10:01:16;101017.00;;;37.05;28.13
7280;BME280;3681;52.254;10.532;2022-07-19T10:04:39;101013.06;;;36.75;29.06
7280;BME280;3681;52.254;10.532;2022-07-19T10:08:01;101018.50;;;36.68;28.27
7280;BME280;3681;52.254;10.532;2022-07-19T10:11:23;101012.84;;;36.99;27.62
7280;BME280;3681;52.254;10.532;2022-07-19T10:14:45;101009.44;;;37.25;26.74
7280;BME280;3681;52.254;10.532;2022-07-19T10:18:11;101000.94;;;37.22;25.12
7280;BME280;3681;52.254;10.532;2022-07-19T10:21:35;101007.00;;;37.24;25.35
7280;BME280;3681;52.254;10.532;2022-07-19T10:24:58;101000.66;;;37.27;24.60
7280;BME280;3681;52.254;10.532;2022-07-19T10:28:27;100998.09;;;37.02;24.43
7280;BME280;3681;52.254;10.532;2022-07-19T10:32:11;100987.66;;;37.57;24.62
7280;BME280;3681;52.254;10.532;2022-07-19T10:35:32;100988.59;;;36.75;25.55
7280;BME280;3681;52.254;10.532;2022-07-19T10:39:22;100980.03;;;37.58;24.80
7280;BME280;3681;52.254;10.532;2022-07-19T10:43:07;100986.47;;;37.39;23.46
7280;BME280;3681;52.254;10.532;2022-07-19T10:46:30;100979.06;;;37.89;22.95
7280;BME280;3681;52.254;10.532;2022-07-19T10:49:51;100976.34;;;37.34;23.97
7280;BME280;3681;52.254;10.532;2022-07-19T10:57:05;100969.22;;;37.40;23.93
7280;BME280;3681;52.254;10.532;2022-07-19T11:00:29;100968.31;;;37.75;23.33
7280;BME280;3681;52.254;10.532;2022-07-19T11:03:51;100960.25;;;39.45;21.80
7280;BME280;3681;52.254;10.532;2022-07-19T11:07:17;100959.63;;;38.72;21.61
7280;BME280;3681;52.254;10.532;2022-07-19T11:10:38;100957.75;;;37.68;22.23
7280;BME280;3681;52.254;10.532;2022-07-19T11:14:04;100952.22;;;37.72;22.10
7280;BME280;3681;52.254;10.532;2022-07-19T11:17:26;100946.63;;;37.76;21.86
7280;BME280;3681;52.254;10.532;2022-07-19T11:20:48;100938.09;;;37.49;21.53
7280;BME280;3681;52.254;10.532;2022-07-19T11:24:10;100942.63;;;38.42;21.86
7280;BME280;3681;52.254;10.532;2022-07-19T11:27:34;100936.41;;;39.39;20.50
7280;BME280;3681;52.254;10.532;2022-07-19T11:31:00;100931.78;;;39.23;20.91
7280;BME280;3681;52.254;10.532;2022-07-19T11:34:25;100926.66;;;38.72;21.16
7280;BME280;3681;52.254;10.532;2022-07-19T11:37:47;100927.88;;;38.48;21.66
7280;BME280;3681;52.254;10.532;2022-07-19T11:41:14;100917.94;;;37.86;22.35
7280;BME280;3681;52.254;10.532;2022-07-19T11:44:36;100906.69;;;38.09;22.01
7280;BME280;3681;52.254;10.532;2022-07-19T11:47:59;100912.00;;;38.63;21.66
7280;BME280;3681;52.254;10.532;2022-07-19T11:51:21;100902.38;;;38.94;21.46
7280;BME280;3681;52.254;10.532;2022-07-19T11:54:57;100902.00;;;38.96;21.49
7280;BME280;3681;52.254;10.532;2022-07-19T11:58:19;100894.81;;;39.66;21.00
7280;BME280;3681;52.254;10.532;2022-07-19T12:01:40;100899.63;;;38.98;21.20
7280;BME280;3681;52.254;10.532;2022-07-19T12:05:10;100911.81;;;38.53;22.00
7280;BME280;3681;52.254;10.532;2022-07-19T12:08:33;100907.13;;;38.34;21.94
7280;BME280;3681;52.254;10.532;2022-07-19T12:11:56;100898.84;;;39.65;20.43
7280;BME280;3681;52.254;10.532;2022-07-19T12:15:18;100894.50;;;38.51;22.09
7280;BME280;3681;52.254;10.532;2022-07-19T12:18:45;100896.44;;;38.46;21.57
7280;BME280;3681;52.254;10.532;2022-07-19T12:22:27;100889.84;;;39.18;21.28
7280;BME280;3681;52.254;10.532;2022-07-19T12:25:49;100888.69;;;38.93;21.77
7280;BME280;3681;52.254;10.532;2022-07-19T12:29:23;100878.53;;;39.89;20.44
7280;BME280;3681;52.254;10.532;2022-07-19T12:32:46;100879.78;;;39.92;20.77
7280;BME280;3681;52.254;10.532;2022-07-19T12:36:07;100877.63;;;39.41;20.95
7280;BME280;3681;52.254;10.532;2022-07-19T12:39:31;100872.69;;;39.68;20.02
7280;BME280;3681;52.254;10.532;2022-07-19T12:42:55;100872.72;;;39.34;20.48
7280;BME280;3681;52.254;10.532;2022-07-19T12:46:21;100875.13;;;38.22;21.43
7280;BME280;3681;52.254;10.532;2022-07-19T12:49:44;100870.25;;;38.99;20.54
7280;BME280;3681;52.254;10.532;2022-07-19T12:53:09;100871.63;;;38.82;20.83
7280;BME280;3681;52.254;10.532;2022-07-19T12:56:32;100864.88;;;39.95;19.22
7280;BME280;3681;52.254;10.532;2022-07-19T12:59:55;100858.16;;;39.29;19.28
7280;BME280;3681;52.254;10.532;2022-07-19T13:03:18;100866.84;;;39.91;18.41
7280;BME280;3681;52.254;10.532;2022-07-19T13:06:38;100863.94;;;39.80;18.04
7280;BME280;3681;52.254;10.532;2022-07-19T13:09:59;100858.00;;;39.92;18.90
7280;BME280;3681;52.254;10.532;2022-07-19T13:13:22;100852.09;;;40.08;19.02
7280;BME280;3681;52.254;10.532;2022-07-19T13:16:44;100849.69;;;39.62;19.42
7280;BME280;3681;52.254;10.532;2022-07-19T13:20:07;100841.44;;;39.91;19.20
7280;BME280;3681;52.254;10.532;2022-07-19T13:23:29;100841.00;;;40.37;18.97
7280;BME280;3681;52.254;10.532;2022-07-19T13:26:50;100834.75;;;40.06;19.13
7280;BME280;3681;52.254;10.532;2022-07-19T13:30:13;100834.19;;;39.49;19.81
7280;BME280;3681;52.254;10.532;2022-07-19T13:33:34;100822.59;;;39.58;19.26
7280;BME280;3681;52.254;10.532;2022-07-19T13:36:56;100820.72;;;39.69;19.19
7280;BME280;3681;52.254;10.532;2022-07-19T13:40:18;100823.09;;;38.96;19.62
7280;BME280;3681;52.254;10.532;2022-07-19T13:43:40;100820.94;;;39.53;18.38
7280;BME280;3681;52.254;10.532;2022-07-19T13:47:03;100822.47;;;41.19;17.70
7280;BME280;3681;52.254;10.532;2022-07-19T13:50:25;100816.44;;;40.41;18.07
7280;BME280;3681;52.254;10.532;2022-07-19T13:53:46;100819.16;;;40.96;17.33
7280;BME280;3681;52.254;10.532;2022-07-19T13:57:10;100809.31;;;39.58;18.85
7280;BME280;3681;52.254;10.532;2022-07-19T14:00:32;100814.53;;;39.60;18.65
7280;BME280;3681;52.254;10.532;2022-07-19T14:03:54;100802.72;;;39.88;18.28
7280;BME280;3681;52.254;10.532;2022-07-19T14:07:16;100803.91;;;40.42;17.71
7280;BME280;3681;52.254;10.532;2022-07-19T14:10:38;100806.25;;;39.77;17.69
7280;BME280;3681;52.254;10.532;2022-07-19T14:14:00;100801.22;;;40.01;17.86
7280;BME280;3681;52.254;10.532;2022-07-19T14:17:21;100806.03;;;40.00;18.21
7280;BME280;3681;52.254;10.532;2022-07-19T14:20:45;100797.50;;;39.12;18.25
7280;BME280;3681;52.254;10.532;2022-07-19T14:24:07;100793.13;;;39.14;18.39
7280;BME280;3681;52.254;10.532;2022-07-19T14:27:29;100790.13;;;39.00;18.94
7280;BME280;3681;52.254;10.532;2022-07-19T14:30:52;100795.97;;;39.55;18.08
7280;BME280;3681;52.254;10.532;2022-07-19T14:34:13;100786.03;;;38.90;17.59
7280;BME280;3681;52.254;10.532;2022-07-19T14:37:56;100783.47;;;40.59;16.89
7280;BME280;3681;52.254;10.532;2022-07-19T14:41:17;100782.34;;;39.20;17.75
7280;BME280;3681;52.254;10.532;2022-07-19T14:44:38;100778.88;;;39.00;18.27
7280;BME280;3681;52.254;10.532;2022-07-19T14:48:00;100781.41;;;38.75;18.21
7280;BME280;3681;52.254;10.532;2022-07-19T14:51:22;100779.94;;;38.58;18.13
7280;BME280;3681;52.254;10.532;2022-07-19T14:54:46;100777.16;;;38.05;18.24
7280;BME280;3681;52.254;10.532;2022-07-19T14:58:07;100781.06;;;37.74;18.46
7280;BME280;3681;52.254;10.532;2022-07-19T15:01:28;100771.09;;;38.03;18.77
7280;BME280;3681;52.254;10.532;2022-07-19T15:04:50;100774.91;;;37.23;19.76
7280;BME280;3681;52.254;10.532;2022-07-19T15:08:11;100777.53;;;37.54;18.87
7280;BME280;3681;52.254;10.532;2022-07-19T15:11:34;100773.13;;;37.80;19.45
7280;BME280;3681;52.254;10.532;2022-07-19T15:14:55;100774.50;;;37.43;20.12
7280;BME280;3681;52.254;10.532;2022-07-19T15:18:17;100769.69;;;37.67;19.09
7280;BME280;3681;52.254;10.532;2022-07-19T15:21:41;100773.38;;;37.94;18.63
7280;BME280;3681;52.254;10.532;2022-07-19T15:25:04;100758.06;;;38.78;18.93
7280;BME280;3681;52.254;10.532;2022-07-19T15:28:27;100757.50;;;39.33;18.35
7280;BME280;3681;52.254;10.532;2022-07-19T15:31:49;100752.38;;;39.45;19.15
7280;BME280;3681;52.254;10.532;2022-07-19T15:35:11;100750.75;;;38.40;19.23
7280;BME280;3681;52.254;10.532;2022-07-19T15:38:39;100745.28;;;38.84;18.92
7280;BME280;3681;52.254;10.532;2022-07-19T15:42:02;100745.91;;;39.04;19.57
7280;BME280;3681;52.254;10.532;2022-07-19T15:45:25;100742.75;;;39.09;19.83
7280;BME280;3681;52.254;10.532;2022-07-19T15:48:46;100743.19;;;38.78;20.12
7280;BME280;3681;52.254;10.532;2022-07-19T15:52:08;100743.16;;;38.44;20.99
7280;BME280;3681;52.254;10.532;2022-07-19T15:55:30;100731.75;;;38.97;21.60
7280;BME280;3681;52.254;10.532;2022-07-19T15:58:51;100732.84;;;38.89;21.58
7280;BME280;3681;52.254;10.532;2022-07-19T16:02:15;100733.81;;;38.70;21.97
7280;BME280;3681;52.254;10.532;2022-07-19T16:05:37;100735.69;;;39.26;22.07
7280;BME280;3681;52.254;10.532;2022-07-19T16:08:59;100724.47;;;39.33;21.20
7280;BME280;3681;52.254;10.532;2022-07-19T16:12:21;100722.66;;;39.14;21.62
7280;BME280;3681;52.254;10.532;2022-07-19T16:15:42;100722.53;;;39.04;20.93
7280;BME280;3681;52.254;10.532;2022-07-19T16:19:12;100724.88;;;38.61;21.22
7280;BME280;3681;52.254;10.532;2022-07-19T16:22:33;100722.72;;;38.81;20.95
7280;BME280;3681;52.254;10.532;2022-07-19T16:25:55;100721.94;;;38.54;21.07
7280;BME280;3681;52.254;10.532;2022-07-19T16:29:16;100714.00;;;38.29;20.44
7280;BME280;3681;52.254;10.532;2022-07-19T16:32:38;100723.09;;;37.92;20.84
7280;BME280;3681;52.254;10.532;2022-07-19T16:36:01;100724.22;;;37.38;21.95
7280;BME280;3681;52.254;10.532;2022-07-19T16:39:22;100718.22;;;37.40;22.04
7280;BME280;3681;52.254;10.532;2022-07-19T16:42:57;100717.16;;;37.48;21.30
7280;BME280;3681;52.254;10.532;2022-07-19T16:46:27;100713.94;;;37.73;21.07
7280;BME280;3681;52.254;10.532;2022-07-19T16:49:49;100711.47;;;37.94;21.55
7280;BME280;3681;52.254;10.532;2022-07-19T16:53:12;100713.13;;;38.25;20.86
7280;BME280;3681;52.254;10.532;2022-07-19T16:56:34;100709.03;;;37.92;21.37
7280;BME280;3681;52.254;10.532;2022-07-19T16:59:55;100714.34;;;37.98;22.36
7280;BME280;3681;52.254;10.532;2022-07-19T17:03:17;100711.22;;;37.80;22.27
7280;BME280;3681;52.254;10.532;2022-07-19T17:06:38;100707.13;;;37.28;23.08
7280;BME280;3681;52.254;10.532;2022-07-19T17:10:03;100706.66;;;37.45;23.10
7280;BME280;3681;52.254;10.532;2022-07-19T17:13:46;100701.63;;;37.58;22.71
7280;BME280;3681;52.254;10.532;2022-07-19T17:17:08;100698.25;;;37.72;22.58
7280;BME280;3681;52.254;10.532;2022-07-19T17:20:29;100702.44;;;37.58;22.28
7280;BME280;3681;52.254;10.532;2022-07-19T17:23:52;100701.03;;;37.45;22.27
7280;BME280;3681;52.254;10.532;2022-07-19T17:27:15;100694.91;;;37.39;22.50
7280;BME280;3681;52.254;10.532;2022-07-19T17:30:37;100710.53;;;37.37;23.07
7280;BME280;3681;52.254;10.532;2022-07-19T17:34:07;100704.19;;;36.98;23.27
7280;BME280;3681;52.254;10.532;2022-07-19T17:37:28;100705.44;;;36.81;23.87
7280;BME280;3681;52.254;10.532;2022-07-19T17:40:49;100706.50;;;36.53;24.61
7280;BME280;3681;52.254;10.532;2022-07-19T17:44:12;100707.97;;;36.67;24.35
7280;BME280;3681;52.254;10.532;2022-07-19T17:47:34;100706.06;;;36.51;25.49
7280;BME280;3681;52.254;10.532;2022-07-19T17:50:56;100709.63;;;36.32;25.92